• Join FlightAware (Why Join?)
  • Login
  • US Flag 
 
11:28AM EST


 

Airport Tracker/Info


-or-


 

Live Flight TrackerFlight Track Log ✈ N3TN ✈ 26-Nov-2013 ✈ KBTV - KBTV

Flight Track Log - Related Links

Times and Time Zones

All times are in EST time to prevent confusion due to time zone crossing. See the N3TN flight status page for this flight to view local times or setup timezone preferences in your user account.

Time Position Orientation Groundspeed Altitude Reporting Facility
EST Latitude Longitude Course Direction KTS MPH feet Rate Location/Type
10:41AM 44.4397 -73.1547 307° West 64 74 2,100  Level Boston Center
10:42AM 44.4275 -73.1744 229° Southwest 68 78 2,600 420 Climbing Boston Center
10:43AM 44.4114 -73.1936 220° Southwest 74 85 3,000 60 Climbing Boston Center
10:44AM 44.3922 -73.2183 223° Southwest 92 106 2,800  Descending Boston Center
10:45AM 44.4719 -73.1533 130° Southeast  Level Estimated
10:45AM 44.4119 -73.2433 318° Northwest 97 112 3,100  Level Boston Center
10:46AM 44.4719 -73.1533 307° West  Level Estimated
10:46AM 44.4222 -73.2722 296° West 91 105 3,100  Level Boston Center
10:47AM 44.4314 -73.3083 290° West 94 108 3,000  Descending Boston Center
10:48AM 44.4444 -73.3414 299° West 97 112 3,100  Climbing Boston Center
10:49AM 44.4689 -73.3569 336° Northwest 99 114 3,000 -60 Descending Boston Center
10:50AM 44.4964 -73.3756 334° Northwest 103 119 3,000 -120 Level Boston Center
10:51AM 44.5194 -73.3922 333° Northwest 96 110 2,800 -360 Descending Boston Center
10:52AM 44.5458 -73.4056 340° North 100 115 2,300 -480 Descending Boston Center
10:53AM 44.5728 -73.4217 337° Northwest 104 120 1,900 -600 Descending Boston Center
10:54AM 44.6003 -73.4372 338° Northwest 107 123 1,200 -720 Descending Boston Center
10:55AM 44.6283 -73.4533 338° Northwest 109 125 500 -240 Descending Boston Center
10:57AM 44.6611 -73.4731 337° Northwest 77 89 700 360 Climbing Boston Center
10:58AM 44.6853 -73.4675 North 93 107 1,500 720 Climbing Boston Center
10:59AM 44.7100 -73.4525 23° Northeast 98 113 2,200 660 Climbing Boston Center
11:00AM 44.7372 -73.4394 19° North 102 117 2,900 480 Climbing Boston Center
11:01AM 44.7564 -73.3922 60° Northeast 119 137 3,300 60 Climbing Boston Center
11:02AM 44.7733 -73.3550 57° Northeast 114 131 3,100 -120 Descending Boston Center
11:03AM 44.7972 -73.3278 39° Northeast 111 128 3,100 -60 Level Boston Center
11:04AM 44.8108 -73.2936 61° Northeast 108 124 3,000  Descending Boston Center
11:05AM 44.8053 -73.3131 248° West 80 92 3,100 60 Climbing Boston Center
11:06AM 44.8033 -73.3403 264° West 75 86 3,200  Climbing Boston Center
11:08AM 44.7803 -73.3314 165° South 108 124 3,100 -60 Descending Boston Center
11:09AM 44.7933 -73.2917 65° Northeast 111 128 3,100 -60 Level Boston Center
11:10AM 44.8097 -73.3056 329° Northwest 94 108 3,000 -60 Descending Boston Center
11:11AM 44.8086 -73.3339 267° West 75 86 3,000 360 Level Boston Center
11:12AM 44.7947 -73.3611 234° Southwest 72 83 3,800 540 Climbing Boston Center
11:13AM 44.7811 -73.3344 126° Southeast 100 115 4,200 240 Climbing Boston Center
11:14AM 44.7969 -73.3153 41° Northeast 96 110 4,300  Climbing Boston Center
11:15AM 44.7903 -73.3358 245° Southwest 76 87 4,200 -420 Descending Boston Center
11:16AM 44.7719 -73.3133 139° Southeast 108 124 3,500 -60 Descending Boston Center
11:17AM 44.7775 -73.2789 77° East 106 122 4,100 240 Climbing Boston Center
11:18AM 44.7906 -73.3014 309° West 80 92 4,100 -540 Level Boston Center
11:19AM 44.7828 -73.3283 248° West 79 91 3,100 -600 Descending Boston Center
11:20AM 44.7883 -73.3564 286° West 76 87 3,000 -60 Descending Boston Center
11:21AM 44.7781 -73.3694 222° Southwest 81 93 3,000  Level Boston Center
11:22AM 44.7519 -73.3539 157° South 84 97 3,000  Level Boston Center
11:23AM 44.7292 -73.3464 167° South 84 97 3,000  Level Boston Center
11:24AM 44.7047 -73.3344 161° South 86 99 3,000  Level Boston Center
11:25AM 44.6819 -73.3278 168° South 85 98 3,000  Level Boston Center
11:26AM 44.6600 -73.3328 189° South 81 93 3,100  Climbing Boston Center
11:27AM 44.6358 -73.3375 188° South 82 94 3,100 -120 Level Boston Center
11:28AM 44.6133 -73.3414 187° South 83 96 2,900 -420 Descending Boston Center
11:29AM 44.5914 -73.3281 157° South 91 105 2,300 -300 Descending Boston Center
11:30AM 44.5692 -73.3053 144° Southeast 92 106 2,300 -60 Level Boston Center
11:31AM 44.5517 -73.2800 134° Southeast 92 106 2,200 -120 Descending Boston Center
11:32AM 44.5358 -73.2533 130° Southeast 84 97 2,100 -300 Descending Boston Center
11:33AM 44.5194 -73.2275 132° Southeast 88 101 1,700 -540 Descending Boston Center
11:34AM 44.5039 -73.2028 131° Southeast 85 98 1,100 -600 Descending Boston Center
11:35AM 44.4881 -73.1775 131° Southeast 80 92 600 -420 Descending Boston Center
11:36AM 44.4750 -73.1572 132° Southeast 73 84 300 -300 Descending Boston Center